sensor_id;sensor_type;location;lat;lon;timestamp;pressure;altitude;pressure_sealevel;temperature;humidity
69187;BME280;56301;56.864;60.554;2023-08-24T00:02:17;97401.53;;;24.44;45.27
69187;BME280;56301;56.864;60.554;2023-08-24T00:04:39;97408.81;;;24.44;44.91
69187;BME280;56301;56.864;60.554;2023-08-24T00:07:02;97416.06;;;24.43;44.78
69187;BME280;56301;56.864;60.554;2023-08-24T00:09:24;97416.94;;;24.44;45.58
69187;BME280;56301;56.864;60.554;2023-08-24T00:11:46;97425.22;;;24.42;44.71
69187;BME280;56301;56.864;60.554;2023-08-24T00:14:09;97417.34;;;24.41;44.82
69187;BME280;56301;56.864;60.554;2023-08-24T00:16:32;97421.69;;;24.42;46.02
69187;BME280;56301;56.864;60.554;2023-08-24T00:18:54;97420.88;;;24.41;45.41
69187;BME280;56301;56.864;60.554;2023-08-24T00:21:17;97414.66;;;24.41;45.05
69187;BME280;56301;56.864;60.554;2023-08-24T00:23:39;97417.34;;;24.41;44.78
69187;BME280;56301;56.864;60.554;2023-08-24T00:26:02;97421.06;;;24.40;44.50
69187;BME280;56301;56.864;60.554;2023-08-24T00:28:27;97425.47;;;24.41;45.48
69187;BME280;56301;56.864;60.554;2023-08-24T00:30:50;97421.94;;;24.40;44.98
69187;BME280;56301;56.864;60.554;2023-08-24T00:33:12;97423.78;;;24.40;45.25
69187;BME280;56301;56.864;60.554;2023-08-24T00:35:35;97427.50;;;24.39;44.87
69187;BME280;56301;56.864;60.554;2023-08-24T00:37:58;97427.50;;;24.39;44.10
69187;BME280;56301;56.864;60.554;2023-08-24T00:40:21;97421.50;;;24.37;43.84
69187;BME280;56301;56.864;60.554;2023-08-24T00:42:44;97428.56;;;24.38;44.38
69187;BME280;56301;56.864;60.554;2023-08-24T00:45:08;97437.50;;;24.38;44.25
69187;BME280;56301;56.864;60.554;2023-08-24T00:47:30;97430.44;;;24.37;44.08
69187;BME280;56301;56.864;60.554;2023-08-24T00:49:53;97432.31;;;24.37;44.50
69187;BME280;56301;56.864;60.554;2023-08-24T00:52:16;97423.16;;;24.38;44.83
69187;BME280;56301;56.864;60.554;2023-08-24T00:54:38;97436.47;;;24.39;46.46
69187;BME280;56301;56.864;60.554;2023-08-24T00:57:01;97431.06;;;24.39;45.25
69187;BME280;56301;56.864;60.554;2023-08-24T00:59:24;97434.59;;;24.40;45.45
69187;BME280;56301;56.864;60.554;2023-08-24T01:01:47;97427.50;;;24.39;45.05
69187;BME280;56301;56.864;60.554;2023-08-24T01:04:11;97441.03;;;24.39;45.30
69187;BME280;56301;56.864;60.554;2023-08-24T01:06:33;97446.44;;;24.39;44.88
69187;BME280;56301;56.864;60.554;2023-08-24T01:08:56;97452.06;;;24.37;44.58
69187;BME280;56301;56.864;60.554;2023-08-24T01:13:54;97449.53;;;24.36;44.29
69187;BME280;56301;56.864;60.554;2023-08-24T01:16:24;97455.19;;;24.34;44.02
69187;BME280;56301;56.864;60.554;2023-08-24T01:18:49;97454.34;;;24.34;44.65
69187;BME280;56301;56.864;60.554;2023-08-24T01:21:13;97457.66;;;24.36;44.94
69187;BME280;56301;56.864;60.554;2023-08-24T01:23:41;97463.06;;;24.36;45.26
69187;BME280;56301;56.864;60.554;2023-08-24T01:26:12;97466.81;;;24.35;45.29
69187;BME280;56301;56.864;60.554;2023-08-24T01:28:36;97454.97;;;24.36;45.36
69187;BME280;56301;56.864;60.554;2023-08-24T01:30:59;97459.34;;;24.37;44.26
69187;BME280;56301;56.864;60.554;2023-08-24T01:33:23;97464.75;;;24.37;44.55
69187;BME280;56301;56.864;60.554;2023-08-24T01:35:48;97471.81;;;24.38;46.33
69187;BME280;56301;56.864;60.554;2023-08-24T01:38:11;97477.22;;;24.38;46.19
69187;BME280;56301;56.864;60.554;2023-08-24T01:40:39;97480.75;;;24.38;45.96
69187;BME280;56301;56.864;60.554;2023-08-24T01:43:07;97471.81;;;24.38;44.80
69187;BME280;56301;56.864;60.554;2023-08-24T01:45:30;97481.56;;;24.39;46.86
69187;BME280;56301;56.864;60.554;2023-08-24T01:47:53;97471.81;;;24.38;45.60
69187;BME280;56301;56.864;60.554;2023-08-24T01:50:17;97476.16;;;24.39;46.21
69187;BME280;56301;56.864;60.554;2023-08-24T01:52:39;97471.81;;;24.38;45.05
69187;BME280;56301;56.864;60.554;2023-08-24T01:55:02;97476.38;;;24.37;46.38
69187;BME280;56301;56.864;60.554;2023-08-24T01:57:25;97469.09;;;24.38;46.03
69187;BME280;56301;56.864;60.554;2023-08-24T01:59:48;97469.09;;;24.38;45.54
69187;BME280;56301;56.864;60.554;2023-08-24T02:02:11;97459.13;;;24.38;45.93
69187;BME280;56301;56.864;60.554;2023-08-24T02:04:33;97463.50;;;24.39;45.92
69187;BME280;56301;56.864;60.554;2023-08-24T02:06:56;97463.50;;;24.39;46.91
69187;BME280;56301;56.864;60.554;2023-08-24T02:09:18;97466.41;;;24.38;46.06
69187;BME280;56301;56.864;60.554;2023-08-24T02:11:41;97473.47;;;24.39;46.13
69187;BME280;56301;56.864;60.554;2023-08-24T02:14:03;97471.81;;;24.38;46.40
69187;BME280;56301;56.864;60.554;2023-08-24T02:16:26;97466.41;;;24.38;45.91
69187;BME280;56301;56.864;60.554;2023-08-24T02:18:48;97461.41;;;24.35;45.05
69187;BME280;56301;56.864;60.554;2023-08-24T02:21:11;97466.19;;;24.33;45.23
69187;BME280;56301;56.864;60.554;2023-08-24T02:23:33;97467.25;;;24.32;44.13
69187;BME280;56301;56.864;60.554;2023-08-24T02:25:56;97462.88;;;24.31;45.42
69187;BME280;56301;56.864;60.554;2023-08-24T02:28:18;97467.47;;;24.30;45.37
69187;BME280;56301;56.864;60.554;2023-08-24T02:30:42;97461.44;;;24.28;44.57
69187;BME280;56301;56.864;60.554;2023-08-24T02:33:05;97469.75;;;24.26;44.45
69187;BME280;56301;56.864;60.554;2023-08-24T02:35:27;97468.94;;;24.26;45.17
69187;BME280;56301;56.864;60.554;2023-08-24T02:37:50;97463.31;;;24.27;46.32
69187;BME280;56301;56.864;60.554;2023-08-24T02:40:12;97462.88;;;24.31;44.93
69187;BME280;56301;56.864;60.554;2023-08-24T02:42:35;97463.47;;;24.33;47.31
69187;BME280;56301;56.864;60.554;2023-08-24T02:44:57;97467.25;;;24.32;45.48
69187;BME280;56301;56.864;60.554;2023-08-24T02:47:20;97472.44;;;24.33;47.09
69187;BME280;56301;56.864;60.554;2023-08-24T02:49:43;97475.97;;;24.34;45.13
69187;BME280;56301;56.864;60.554;2023-08-24T02:52:05;97467.03;;;24.33;44.58
69187;BME280;56301;56.864;60.554;2023-08-24T02:54:27;97463.47;;;24.33;47.22
69187;BME280;56301;56.864;60.554;2023-08-24T02:56:50;97471.59;;;24.33;46.96
69187;BME280;56301;56.864;60.554;2023-08-24T02:59:13;97471.81;;;24.31;44.88
69187;BME280;56301;56.864;60.554;2023-08-24T03:01:35;97471.00;;;24.31;44.17
69187;BME280;56301;56.864;60.554;2023-08-24T03:03:58;97471.00;;;24.31;43.65
69187;BME280;56301;56.864;60.554;2023-08-24T03:06:21;97474.75;;;24.30;44.67
69187;BME280;56301;56.864;60.554;2023-08-24T03:08:43;97474.75;;;24.30;44.34
69187;BME280;56301;56.864;60.554;2023-08-24T03:11:07;97469.53;;;24.28;44.91
69187;BME280;56301;56.864;60.554;2023-08-24T03:13:30;97469.34;;;24.30;45.39
69187;BME280;56301;56.864;60.554;2023-08-24T03:15:53;97467.66;;;24.29;45.12
69187;BME280;56301;56.864;60.554;2023-08-24T03:18:16;97479.28;;;24.29;44.64
69187;BME280;56301;56.864;60.554;2023-08-24T03:20:40;97474.75;;;24.30;45.32
69187;BME280;56301;56.864;60.554;2023-08-24T03:23:03;97476.41;;;24.31;45.64
69187;BME280;56301;56.864;60.554;2023-08-24T03:25:26;97468.28;;;24.31;44.89
69187;BME280;56301;56.864;60.554;2023-08-24T03:27:49;97478.06;;;24.25;44.69
69187;BME280;56301;56.864;60.554;2023-08-24T03:30:12;97477.66;;;24.21;45.95
69187;BME280;56301;56.864;60.554;2023-08-24T03:32:34;97481.00;;;24.23;46.50
69187;BME280;56301;56.864;60.554;2023-08-24T03:35:01;97477.66;;;24.21;45.68
69187;BME280;56301;56.864;60.554;2023-08-24T03:37:23;97467.47;;;24.23;45.81
69187;BME280;56301;56.864;60.554;2023-08-24T03:39:46;97473.94;;;24.22;46.56
69187;BME280;56301;56.864;60.554;2023-08-24T03:42:08;97482.66;;;24.24;46.89
69187;BME280;56301;56.864;60.554;2023-08-24T03:44:32;97481.59;;;24.25;45.63
69187;BME280;56301;56.864;60.554;2023-08-24T03:46:56;97481.59;;;24.25;45.51
69187;BME280;56301;56.864;60.554;2023-08-24T03:49:18;97485.75;;;24.28;45.55
69187;BME280;56301;56.864;60.554;2023-08-24T03:51:41;97481.41;;;24.27;46.24
69187;BME280;56301;56.864;60.554;2023-08-24T03:54:04;97483.88;;;24.22;46.95
69187;BME280;56301;56.864;60.554;2023-08-24T03:56:27;97480.56;;;24.26;45.64
69187;BME280;56301;56.864;60.554;2023-08-24T03:58:49;97481.81;;;24.31;45.04
69187;BME280;56301;56.864;60.554;2023-08-24T04:01:13;97478.06;;;24.32;45.18
69187;BME280;56301;56.864;60.554;2023-08-24T04:03:36;97485.13;;;24.33;45.67
69187;BME280;56301;56.864;60.554;2023-08-24T04:05:59;97484.09;;;24.34;46.15
69187;BME280;56301;56.864;60.554;2023-08-24T04:08:23;97487.63;;;24.34;46.37
69187;BME280;56301;56.864;60.554;2023-08-24T04:10:46;97470.56;;;24.34;45.71
69187;BME280;56301;56.864;60.554;2023-08-24T04:13:08;97491.38;;;24.33;45.56
69187;BME280;56301;56.864;60.554;2023-08-24T04:15:32;97485.56;;;24.30;44.69
69187;BME280;56301;56.864;60.554;2023-08-24T04:17:55;97487.22;;;24.31;45.32
69187;BME280;56301;56.864;60.554;2023-08-24T04:20:18;97489.09;;;24.30;45.44
69187;BME280;56301;56.864;60.554;2023-08-24T04:22:41;97493.03;;;24.27;45.09
69187;BME280;56301;56.864;60.554;2023-08-24T04:25:03;97489.91;;;24.31;44.92
69187;BME280;56301;56.864;60.554;2023-08-24T04:27:26;97480.97;;;24.30;45.08
69187;BME280;56301;56.864;60.554;2023-08-24T04:29:48;97488.88;;;24.32;45.38
69187;BME280;56301;56.864;60.554;2023-08-24T04:32:12;97488.88;;;24.32;44.57
69187;BME280;56301;56.864;60.554;2023-08-24T04:34:35;97488.03;;;24.31;45.01
69187;BME280;56301;56.864;60.554;2023-08-24T04:36:58;97484.69;;;24.29;45.11
69187;BME280;56301;56.864;60.554;2023-08-24T04:39:20;97482.22;;;24.27;45.33
69187;BME280;56301;56.864;60.554;2023-08-24T04:41:42;97496.38;;;24.30;44.44
69187;BME280;56301;56.864;60.554;2023-08-24T04:44:05;97483.69;;;24.30;44.92
69187;BME280;56301;56.864;60.554;2023-08-24T04:46:27;97481.81;;;24.31;44.09
69187;BME280;56301;56.864;60.554;2023-08-24T04:48:50;97488.88;;;24.32;44.68
69187;BME280;56301;56.864;60.554;2023-08-24T04:51:12;97484.50;;;24.31;45.09
69187;BME280;56301;56.864;60.554;2023-08-24T04:53:35;97490.34;;;24.27;44.50
69187;BME280;56301;56.864;60.554;2023-08-24T04:55:57;97492.22;;;24.27;44.38
69187;BME280;56301;56.864;60.554;2023-08-24T04:58:19;97488.47;;;24.28;44.57
69187;BME280;56301;56.864;60.554;2023-08-24T05:00:42;97489.28;;;24.29;43.73
69187;BME280;56301;56.864;60.554;2023-08-24T05:03:05;97490.97;;;24.30;43.58
69187;BME280;56301;56.864;60.554;2023-08-24T05:05:33;97491.78;;;24.30;43.95
69187;BME280;56301;56.864;60.554;2023-08-24T05:07:57;97491.97;;;24.29;44.12
69187;BME280;56301;56.864;60.554;2023-08-24T05:10:19;97495.50;;;24.29;44.22
69187;BME280;56301;56.864;60.554;2023-08-24T05:12:42;97490.97;;;24.30;44.32
69187;BME280;56301;56.864;60.554;2023-08-24T05:15:05;97492.81;;;24.29;43.79
69187;BME280;56301;56.864;60.554;2023-08-24T05:17:27;97496.56;;;24.28;43.58
69187;BME280;56301;56.864;60.554;2023-08-24T05:19:53;97495.75;;;24.27;44.04
69187;BME280;56301;56.864;60.554;2023-08-24T05:22:16;97497.81;;;24.25;43.84
69187;BME280;56301;56.864;60.554;2023-08-24T05:24:39;97495.97;;;24.26;43.92
69187;BME280;56301;56.864;60.554;2023-08-24T05:27:01;97497.22;;;24.23;44.48
69187;BME280;56301;56.864;60.554;2023-08-24T05:29:23;97501.97;;;24.21;44.06
69187;BME280;56301;56.864;60.554;2023-08-24T05:31:46;97505.72;;;24.20;43.75
69187;BME280;56301;56.864;60.554;2023-08-24T05:34:08;97502.44;;;24.18;44.20
69187;BME280;56301;56.864;60.554;2023-08-24T05:36:31;97505.97;;;24.19;43.86
69187;BME280;56301;56.864;60.554;2023-08-24T05:38:54;97505.13;;;24.18;43.82
69187;BME280;56301;56.864;60.554;2023-08-24T05:41:16;97503.44;;;24.17;44.39
69187;BME280;56301;56.864;60.554;2023-08-24T05:43:39;97511.56;;;24.17;44.09
69187;BME280;56301;56.864;60.554;2023-08-24T05:46:01;97511.56;;;24.17;43.82
69187;BME280;56301;56.864;60.554;2023-08-24T05:48:24;97514.25;;;24.17;44.07
69187;BME280;56301;56.864;60.554;2023-08-24T05:50:46;97516.97;;;24.17;43.59
69187;BME280;56301;56.864;60.554;2023-08-24T05:53:09;97513.44;;;24.17;43.47
69187;BME280;56301;56.864;60.554;2023-08-24T05:55:31;97508.03;;;24.17;43.72
69187;BME280;56301;56.864;60.554;2023-08-24T05:57:54;97517.19;;;24.16;43.98
69187;BME280;56301;56.864;60.554;2023-08-24T06:00:16;97519.06;;;24.15;44.22
69187;BME280;56301;56.864;60.554;2023-08-24T06:02:39;97521.75;;;24.15;44.03
69187;BME280;56301;56.864;60.554;2023-08-24T06:05:02;97510.72;;;24.17;44.57
69187;BME280;56301;56.864;60.554;2023-08-24T06:07:24;97513.84;;;24.20;43.93
69187;BME280;56301;56.864;60.554;2023-08-24T06:09:47;97517.19;;;24.22;45.01
69187;BME280;56301;56.864;60.554;2023-08-24T06:12:09;97507.19;;;24.23;44.76
69187;BME280;56301;56.864;60.554;2023-08-24T06:14:32;97508.44;;;24.20;43.49
69187;BME280;56301;56.864;60.554;2023-08-24T06:16:54;97510.09;;;24.21;43.45
69187;BME280;56301;56.864;60.554;2023-08-24T06:19:17;97510.09;;;24.21;43.34
69187;BME280;56301;56.864;60.554;2023-08-24T06:21:39;97512.78;;;24.21;43.67
69187;BME280;56301;56.864;60.554;2023-08-24T06:24:02;97509.69;;;24.18;43.40
69187;BME280;56301;56.864;60.554;2023-08-24T06:26:24;97505.13;;;24.18;43.77
69187;BME280;56301;56.864;60.554;2023-08-24T06:28:47;97512.59;;;24.16;43.47
69187;BME280;56301;56.864;60.554;2023-08-24T06:31:11;97502.44;;;24.18;43.33
69187;BME280;56301;56.864;60.554;2023-08-24T06:33:33;97508.66;;;24.19;44.12
69187;BME280;56301;56.864;60.554;2023-08-24T06:35:56;97502.63;;;24.17;43.59
69187;BME280;56301;56.864;60.554;2023-08-24T06:38:19;97501.78;;;24.16;43.23
69187;BME280;56301;56.864;60.554;2023-08-24T06:40:42;97501.56;;;24.18;43.45
69187;BME280;56301;56.864;60.554;2023-08-24T06:43:05;97506.16;;;24.17;42.84
69187;BME280;56301;56.864;60.554;2023-08-24T06:45:28;97511.38;;;24.19;44.16
69187;BME280;56301;56.864;60.554;2023-08-24T06:47:50;97513.25;;;24.18;43.48
69187;BME280;56301;56.864;60.554;2023-08-24T06:50:13;97510.31;;;24.20;43.22
69187;BME280;56301;56.864;60.554;2023-08-24T06:52:36;97510.09;;;24.21;43.19
69187;BME280;56301;56.864;60.554;2023-08-24T06:54:59;97500.97;;;24.22;43.39
69187;BME280;56301;56.864;60.554;2023-08-24T06:57:21;97511.56;;;24.24;43.66
69187;BME280;56301;56.864;60.554;2023-08-24T06:59:44;97505.50;;;24.22;43.71
69187;BME280;56301;56.864;60.554;2023-08-24T07:02:06;97507.38;;;24.21;43.47
69187;BME280;56301;56.864;60.554;2023-08-24T07:04:29;97510.72;;;24.23;43.29
69187;BME280;56301;56.864;60.554;2023-08-24T07:06:51;97506.38;;;24.22;43.30
69187;BME280;56301;56.864;60.554;2023-08-24T07:09:13;97501.78;;;24.23;43.48
69187;BME280;56301;56.864;60.554;2023-08-24T07:11:36;97511.13;;;24.20;43.50
69187;BME280;56301;56.864;60.554;2023-08-24T07:13:58;97509.25;;;24.21;43.47
69187;BME280;56301;56.864;60.554;2023-08-24T07:16:21;97505.50;;;24.22;42.56
69187;BME280;56301;56.864;60.554;2023-08-24T07:18:44;97498.03;;;24.24;43.04
69187;BME280;56301;56.864;60.554;2023-08-24T07:21:06;97504.91;;;24.26;43.17
69187;BME280;56301;56.864;60.554;2023-08-24T07:23:29;97512.59;;;24.30;42.89
69187;BME280;56301;56.864;60.554;2023-08-24T07:25:51;97500.31;;;24.34;43.00
69187;BME280;56301;56.864;60.554;2023-08-24T07:28:14;97502.19;;;24.33;42.83
69187;BME280;56301;56.864;60.554;2023-08-24T07:30:37;97513.19;;;24.32;43.03
69187;BME280;56301;56.864;60.554;2023-08-24T07:32:59;97503.44;;;24.31;42.79
69187;BME280;56301;56.864;60.554;2023-08-24T07:35:22;97510.50;;;24.32;43.03
69187;BME280;56301;56.864;60.554;2023-08-24T07:37:45;97513.41;;;24.30;43.16
69187;BME280;56301;56.864;60.554;2023-08-24T07:40:07;97508.00;;;24.30;43.01
69187;BME280;56301;56.864;60.554;2023-08-24T07:42:30;97506.13;;;24.31;42.86
69187;BME280;56301;56.864;60.554;2023-08-24T07:44:53;97501.56;;;24.31;42.58
69187;BME280;56301;56.864;60.554;2023-08-24T07:47:15;97498.84;;;24.31;42.67
69187;BME280;56301;56.864;60.554;2023-08-24T07:49:38;97501.56;;;24.31;42.78
69187;BME280;56301;56.864;60.554;2023-08-24T07:52:00;97502.38;;;24.32;43.07
69187;BME280;56301;56.864;60.554;2023-08-24T07:54:23;97504.25;;;24.31;42.72
69187;BME280;56301;56.864;60.554;2023-08-24T07:56:45;97503.44;;;24.31;42.90
69187;BME280;56301;56.864;60.554;2023-08-24T07:59:08;97500.50;;;24.32;42.77
69187;BME280;56301;56.864;60.554;2023-08-24T08:01:31;97494.28;;;24.32;43.32
69187;BME280;56301;56.864;60.554;2023-08-24T08:03:53;97500.31;;;24.34;43.14
69187;BME280;56301;56.864;60.554;2023-08-24T08:06:16;97485.13;;;24.33;43.02
69187;BME280;56301;56.864;60.554;2023-08-24T08:08:38;97485.97;;;24.33;43.33
69187;BME280;56301;56.864;60.554;2023-08-24T08:11:01;97497.59;;;24.34;43.19
69187;BME280;56301;56.864;60.554;2023-08-24T08:13:24;97490.09;;;24.36;43.19
69187;BME280;56301;56.864;60.554;2023-08-24T08:15:46;97491.78;;;24.37;43.21
69187;BME280;56301;56.864;60.554;2023-08-24T08:18:09;97490.72;;;24.38;42.33
69187;BME280;56301;56.864;60.554;2023-08-24T08:20:32;97485.53;;;24.36;42.63
69187;BME280;56301;56.864;60.554;2023-08-24T08:22:55;97480.13;;;24.43;42.48
69187;BME280;56301;56.864;60.554;2023-08-24T08:25:17;97485.13;;;24.46;43.23
69187;BME280;56301;56.864;60.554;2023-08-24T08:27:40;97478.66;;;24.47;43.26
69187;BME280;56301;56.864;60.554;2023-08-24T08:30:02;97488.03;;;24.44;42.62
69187;BME280;56301;56.864;60.554;2023-08-24T08:32:25;97482.63;;;24.44;42.87
69187;BME280;56301;56.864;60.554;2023-08-24T08:34:47;97487.22;;;24.44;42.87
69187;BME280;56301;56.864;60.554;2023-08-24T08:37:10;97486.38;;;24.43;42.61
69187;BME280;56301;56.864;60.554;2023-08-24T08:39:32;97483.88;;;24.42;42.69
69187;BME280;56301;56.864;60.554;2023-08-24T08:41:55;97484.72;;;24.42;42.74
69187;BME280;56301;56.864;60.554;2023-08-24T08:44:17;97489.28;;;24.42;43.22
69187;BME280;56301;56.864;60.554;2023-08-24T08:46:42;97490.13;;;24.42;42.84
69187;BME280;56301;56.864;60.554;2023-08-24T08:49:04;97492.00;;;24.42;42.94
69187;BME280;56301;56.864;60.554;2023-08-24T08:51:28;97481.19;;;24.42;42.67
69187;BME280;56301;56.864;60.554;2023-08-24T08:53:52;97488.66;;;24.40;42.69
69187;BME280;56301;56.864;60.554;2023-08-24T08:56:14;97480.53;;;24.40;42.98
69187;BME280;56301;56.864;60.554;2023-08-24T08:58:38;97482.63;;;24.38;42.94
69187;BME280;56301;56.864;60.554;2023-08-24T09:01:04;97482.63;;;24.38;42.57
69187;BME280;56301;56.864;60.554;2023-08-24T09:03:27;97476.38;;;24.37;43.45
69187;BME280;56301;56.864;60.554;2023-08-24T09:05:51;97482.63;;;24.38;42.73
69187;BME280;56301;56.864;60.554;2023-08-24T09:08:17;97480.97;;;24.37;43.00
69187;BME280;56301;56.864;60.554;2023-08-24T09:10:40;97476.59;;;24.36;43.19
69187;BME280;56301;56.864;60.554;2023-08-24T09:13:02;97475.56;;;24.37;43.46
69187;BME280;56301;56.864;60.554;2023-08-24T09:15:25;97473.88;;;24.36;43.03
69187;BME280;56301;56.864;60.554;2023-08-24T09:17:50;97472.22;;;24.35;43.59
69187;BME280;56301;56.864;60.554;2023-08-24T09:20:15;97474.31;;;24.39;43.43
69187;BME280;56301;56.864;60.554;2023-08-24T09:22:39;97471.41;;;24.41;43.78
69187;BME280;56301;56.864;60.554;2023-08-24T09:25:03;97471.41;;;24.41;43.31
69187;BME280;56301;56.864;60.554;2023-08-24T09:27:26;97470.59;;;24.40;43.23
69187;BME280;56301;56.864;60.554;2023-08-24T09:29:49;97469.72;;;24.40;43.33
69187;BME280;56301;56.864;60.554;2023-08-24T09:32:12;97463.50;;;24.39;43.07
69187;BME280;56301;56.864;60.554;2023-08-24T09:34:35;97471.41;;;24.41;43.42
69187;BME280;56301;56.864;60.554;2023-08-24T09:36:58;97466.00;;;24.41;43.59
69187;BME280;56301;56.864;60.554;2023-08-24T09:39:21;97472.84;;;24.43;43.17
69187;BME280;56301;56.864;60.554;2023-08-24T09:41:44;97472.00;;;24.43;43.33
69187;BME280;56301;56.864;60.554;2023-08-24T09:44:07;97468.50;;;24.42;43.56
69187;BME280;56301;56.864;60.554;2023-08-24T09:46:30;97475.78;;;24.42;43.73
69187;BME280;56301;56.864;60.554;2023-08-24T09:48:55;97473.06;;;24.42;43.86
69187;BME280;56301;56.864;60.554;2023-08-24T09:51:17;97471.41;;;24.41;42.59
69187;BME280;56301;56.864;60.554;2023-08-24T09:53:41;97464.31;;;24.40;43.12
69187;BME280;56301;56.864;60.554;2023-08-24T09:56:04;97465.19;;;24.40;42.47
69187;BME280;56301;56.864;60.554;2023-08-24T09:58:28;97468.06;;;24.39;43.10
69187;BME280;56301;56.864;60.554;2023-08-24T10:00:51;97470.78;;;24.32;42.86
69187;BME280;56301;56.864;60.554;2023-08-24T10:03:16;97475.34;;;24.32;43.07
69187;BME280;56301;56.864;60.554;2023-08-24T10:05:39;97478.88;;;24.32;43.46
69187;BME280;56301;56.864;60.554;2023-08-24T10:08:01;97488.88;;;24.32;43.12
69187;BME280;56301;56.864;60.554;2023-08-24T10:10:25;97482.41;;;24.33;43.40
69187;BME280;56301;56.864;60.554;2023-08-24T10:12:50;97484.28;;;24.32;43.19
69187;BME280;56301;56.864;60.554;2023-08-24T10:15:12;97487.41;;;24.36;43.49
69187;BME280;56301;56.864;60.554;2023-08-24T10:17:35;97489.69;;;24.39;43.00
69187;BME280;56301;56.864;60.554;2023-08-24T10:19:58;97486.38;;;24.43;42.95
69187;BME280;56301;56.864;60.554;2023-08-24T10:22:21;97481.81;;;24.44;42.85
69187;BME280;56301;56.864;60.554;2023-08-24T10:24:43;97485.34;;;24.44;42.78
69187;BME280;56301;56.864;60.554;2023-08-24T10:27:06;97475.53;;;24.50;42.84
69187;BME280;56301;56.864;60.554;2023-08-24T10:29:31;97471.81;;;24.51;42.54
69187;BME280;56301;56.864;60.554;2023-08-24T10:31:54;97481.34;;;24.54;42.87
69187;BME280;56301;56.864;60.554;2023-08-24T10:34:16;97488.03;;;24.51;43.19
69187;BME280;56301;56.864;60.554;2023-08-24T10:36:40;97507.97;;;24.50;42.94
69187;BME280;56301;56.864;60.554;2023-08-24T10:39:02;97499.25;;;24.48;43.21
69187;BME280;56301;56.864;60.554;2023-08-24T10:41:28;97510.50;;;24.45;43.42
69187;BME280;56301;56.864;60.554;2023-08-24T10:43:51;97488.25;;;24.43;43.31
69187;BME280;56301;56.864;60.554;2023-08-24T10:46:14;97478.06;;;24.45;42.95
69187;BME280;56301;56.864;60.554;2023-08-24T10:53:38;97477.16;;;24.58;43.18
69187;BME280;56301;56.864;60.554;2023-08-24T10:56:14;97473.44;;;24.59;42.60
69187;BME280;56301;56.864;60.554;2023-08-24T10:58:36;97465.53;;;24.57;43.60
69187;BME280;56301;56.864;60.554;2023-08-24T11:01:00;97463.03;;;24.56;43.26
69187;BME280;56301;56.864;60.554;2023-08-24T11:03:31;97462.22;;;24.55;43.41
69187;BME280;56301;56.864;60.554;2023-08-24T11:05:55;97455.13;;;24.54;42.92
69187;BME280;56301;56.864;60.554;2023-08-24T11:08:18;97462.41;;;24.54;43.67
69187;BME280;56301;56.864;60.554;2023-08-24T11:15:34;97457.22;;;24.52;42.90
69187;BME280;56301;56.864;60.554;2023-08-24T11:21:00;97461.19;;;24.49;43.61
69187;BME280;56301;56.864;60.554;2023-08-24T11:23:24;97463.06;;;24.49;44.24
69187;BME280;56301;56.864;60.554;2023-08-24T11:25:47;97457.88;;;24.47;44.04
69187;BME280;56301;56.864;60.554;2023-08-24T11:28:11;97465.13;;;24.47;43.74
69187;BME280;56301;56.864;60.554;2023-08-24T11:30:34;97456.19;;;24.46;43.65
69187;BME280;56301;56.864;60.554;2023-08-24T11:32:57;97453.50;;;24.46;44.12
69187;BME280;56301;56.864;60.554;2023-08-24T11:35:20;97450.78;;;24.46;43.74
69187;BME280;56301;56.864;60.554;2023-08-24T11:37:43;97457.03;;;24.47;43.44
69187;BME280;56301;56.864;60.554;2023-08-24T11:40:06;97450.59;;;24.48;44.01
69187;BME280;56301;56.864;60.554;2023-08-24T11:42:35;97444.38;;;24.47;43.30
69187;BME280;56301;56.864;60.554;2023-08-24T11:44:57;97449.78;;;24.47;43.86
69187;BME280;56301;56.864;60.554;2023-08-24T11:47:20;97450.59;;;24.48;43.72
69187;BME280;56301;56.864;60.554;2023-08-24T11:49:42;97455.19;;;24.47;43.46
69187;BME280;56301;56.864;60.554;2023-08-24T11:52:06;97449.78;;;24.47;43.63
69187;BME280;56301;56.864;60.554;2023-08-24T11:54:30;97443.50;;;24.47;43.44
69187;BME280;56301;56.864;60.554;2023-08-24T11:56:54;97447.25;;;24.46;43.40
69187;BME280;56301;56.864;60.554;2023-08-24T11:59:16;97446.22;;;24.47;43.42
69187;BME280;56301;56.864;60.554;2023-08-24T12:01:40;97438.09;;;24.47;43.92
69187;BME280;56301;56.864;60.554;2023-08-24T12:04:03;97431.03;;;24.46;43.15
69187;BME280;56301;56.864;60.554;2023-08-24T12:06:26;97430.00;;;24.47;44.57
69187;BME280;56301;56.864;60.554;2023-08-24T12:08:49;97438.97;;;24.47;44.11
69187;BME280;56301;56.864;60.554;2023-08-24T12:11:15;97438.09;;;24.47;44.52
69187;BME280;56301;56.864;60.554;2023-08-24T12:13:38;97441.84;;;24.46;44.32
69187;BME280;56301;56.864;60.554;2023-08-24T12:16:04;97445.59;;;24.45;44.06
69187;BME280;56301;56.864;60.554;2023-08-24T12:18:27;97445.59;;;24.45;44.02
69187;BME280;56301;56.864;60.554;2023-08-24T12:20:49;97442.09;;;24.44;44.60
69187;BME280;56301;56.864;60.554;2023-08-24T12:23:12;97446.66;;;24.44;44.08
69187;BME280;56301;56.864;60.554;2023-08-24T12:25:37;97447.69;;;24.43;44.08
69187;BME280;56301;56.864;60.554;2023-08-24T12:30:31;97440.63;;;24.42;43.82
69187;BME280;56301;56.864;60.554;2023-08-24T12:32:55;97440.00;;;24.40;43.85
69187;BME280;56301;56.864;60.554;2023-08-24T12:35:17;97436.47;;;24.39;43.64
69187;BME280;56301;56.864;60.554;2023-08-24T12:37:40;97438.31;;;24.39;44.05
69187;BME280;56301;56.864;60.554;2023-08-24T12:40:04;97441.88;;;24.39;43.90
69187;BME280;56301;56.864;60.554;2023-08-24T12:42:27;97446.44;;;24.39;43.68
69187;BME280;56301;56.864;60.554;2023-08-24T12:44:50;97444.78;;;24.38;44.56
69187;BME280;56301;56.864;60.554;2023-08-24T12:47:12;97440.41;;;24.37;44.34